sensor_id;sensor_type;location;lat;lon;timestamp;P1;durP1;ratioP1;P2;durP2;ratioP2
29908;SDS011;36247;51.952;6.146;2023-02-26T00:01:26;18.83;;;5.25;;
29908;SDS011;36247;51.952;6.146;2023-02-26T00:03:54;13.40;;;4.97;;
29908;SDS011;36247;51.952;6.146;2023-02-26T00:06:22;9.80;;;5.22;;
29908;SDS011;36247;51.952;6.146;2023-02-26T00:08:48;8.95;;;4.57;;
29908;SDS011;36247;51.952;6.146;2023-02-26T00:11:14;12.50;;;4.88;;
29908;SDS011;36247;51.952;6.146;2023-02-26T00:13:40;12.82;;;4.50;;
29908;SDS011;36247;51.952;6.146;2023-02-26T00:18:52;11.15;;;4.72;;
29908;SDS011;36247;51.952;6.146;2023-02-26T00:21:19;12.55;;;4.22;;
29908;SDS011;36247;51.952;6.146;2023-02-26T00:23:46;11.80;;;3.92;;
29908;SDS011;36247;51.952;6.146;2023-02-26T00:26:12;18.95;;;4.40;;
29908;SDS011;36247;51.952;6.146;2023-02-26T00:28:38;9.82;;;3.90;;
29908;SDS011;36247;51.952;6.146;2023-02-26T00:31:04;16.33;;;4.82;;
29908;SDS011;36247;51.952;6.146;2023-02-26T00:33:30;11.05;;;4.07;;
29908;SDS011;36247;51.952;6.146;2023-02-26T00:36:00;9.10;;;3.30;;
29908;SDS011;36247;51.952;6.146;2023-02-26T00:38:37;10.65;;;4.28;;
29908;SDS011;36247;51.952;6.146;2023-02-26T00:41:05;8.52;;;3.20;;
29908;SDS011;36247;51.952;6.146;2023-02-26T00:43:32;8.77;;;3.63;;
29908;SDS011;36247;51.952;6.146;2023-02-26T00:46:02;9.68;;;3.42;;
29908;SDS011;36247;51.952;6.146;2023-02-26T00:51:33;9.63;;;3.05;;
29908;SDS011;36247;51.952;6.146;2023-02-26T00:56:31;11.13;;;3.10;;
29908;SDS011;36247;51.952;6.146;2023-02-26T00:58:58;11.75;;;3.58;;
29908;SDS011;36247;51.952;6.146;2023-02-26T01:01:23;13.90;;;3.65;;
29908;SDS011;36247;51.952;6.146;2023-02-26T01:03:49;10.60;;;3.67;;
29908;SDS011;36247;51.952;6.146;2023-02-26T01:06:16;10.15;;;3.50;;
29908;SDS011;36247;51.952;6.146;2023-02-26T01:08:51;9.02;;;3.10;;
29908;SDS011;36247;51.952;6.146;2023-02-26T01:11:26;6.28;;;3.58;;
29908;SDS011;36247;51.952;6.146;2023-02-26T01:13:51;10.93;;;3.90;;
29908;SDS011;36247;51.952;6.146;2023-02-26T01:16:19;8.25;;;3.60;;
29908;SDS011;36247;51.952;6.146;2023-02-26T01:18:53;9.90;;;3.17;;
29908;SDS011;36247;51.952;6.146;2023-02-26T01:21:28;10.10;;;3.78;;
29908;SDS011;36247;51.952;6.146;2023-02-26T01:23:57;14.95;;;3.88;;
29908;SDS011;36247;51.952;6.146;2023-02-26T01:26:27;7.30;;;3.30;;
29908;SDS011;36247;51.952;6.146;2023-02-26T01:28:53;9.38;;;3.40;;
29908;SDS011;36247;51.952;6.146;2023-02-26T01:31:41;8.05;;;3.22;;
29908;SDS011;36247;51.952;6.146;2023-02-26T01:34:09;13.68;;;4.13;;
29908;SDS011;36247;51.952;6.146;2023-02-26T01:36:43;8.43;;;3.97;;
29908;SDS011;36247;51.952;6.146;2023-02-26T01:42:12;10.77;;;3.42;;
29908;SDS011;36247;51.952;6.146;2023-02-26T01:47:20;11.43;;;4.45;;
29908;SDS011;36247;51.952;6.146;2023-02-26T01:49:53;11.02;;;2.97;;
29908;SDS011;36247;51.952;6.146;2023-02-26T01:53:01;11.77;;;2.95;;
29908;SDS011;36247;51.952;6.146;2023-02-26T01:55:13;8.30;;;3.08;;
29908;SDS011;36247;51.952;6.146;2023-02-26T01:57:41;12.77;;;3.17;;
29908;SDS011;36247;51.952;6.146;2023-02-26T02:00:07;12.50;;;3.40;;
29908;SDS011;36247;51.952;6.146;2023-02-26T02:02:37;5.38;;;2.55;;
29908;SDS011;36247;51.952;6.146;2023-02-26T02:05:11;5.63;;;2.30;;
29908;SDS011;36247;51.952;6.146;2023-02-26T02:07:44;6.57;;;2.72;;
29908;SDS011;36247;51.952;6.146;2023-02-26T02:10:10;13.15;;;3.05;;
29908;SDS011;36247;51.952;6.146;2023-02-26T02:12:40;5.78;;;2.60;;
29908;SDS011;36247;51.952;6.146;2023-02-26T02:15:19;7.45;;;3.17;;
29908;SDS011;36247;51.952;6.146;2023-02-26T02:18:03;6.00;;;2.90;;
29908;SDS011;36247;51.952;6.146;2023-02-26T02:20:40;6.82;;;2.63;;
29908;SDS011;36247;51.952;6.146;2023-02-26T02:32:26;8.57;;;2.80;;
29908;SDS011;36247;51.952;6.146;2023-02-26T02:34:57;10.18;;;4.32;;
29908;SDS011;36247;51.952;6.146;2023-02-26T02:37:37;7.97;;;2.83;;
29908;SDS011;36247;51.952;6.146;2023-02-26T02:40:14;7.18;;;2.90;;
29908;SDS011;36247;51.952;6.146;2023-02-26T02:45:48;10.65;;;2.63;;
29908;SDS011;36247;51.952;6.146;2023-02-26T02:48:32;7.07;;;2.63;;
29908;SDS011;36247;51.952;6.146;2023-02-26T02:51:06;6.13;;;2.83;;
29908;SDS011;36247;51.952;6.146;2023-02-26T02:53:37;3.63;;;2.53;;
29908;SDS011;36247;51.952;6.146;2023-02-26T02:56:09;5.95;;;2.42;;
29908;SDS011;36247;51.952;6.146;2023-02-26T02:58:41;9.10;;;3.55;;
29908;SDS011;36247;51.952;6.146;2023-02-26T03:01:12;6.63;;;2.42;;
29908;SDS011;36247;51.952;6.146;2023-02-26T03:03:49;6.20;;;2.50;;
29908;SDS011;36247;51.952;6.146;2023-02-26T03:06:21;8.32;;;2.88;;
29908;SDS011;36247;51.952;6.146;2023-02-26T03:08:48;8.68;;;2.72;;
29908;SDS011;36247;51.952;6.146;2023-02-26T03:11:15;8.90;;;2.95;;
29908;SDS011;36247;51.952;6.146;2023-02-26T03:13:41;4.75;;;2.70;;
29908;SDS011;36247;51.952;6.146;2023-02-26T03:24:57;10.05;;;3.38;;
29908;SDS011;36247;51.952;6.146;2023-02-26T03:27:33;10.45;;;3.13;;
29908;SDS011;36247;51.952;6.146;2023-02-26T03:35:49;10.65;;;3.72;;
29908;SDS011;36247;51.952;6.146;2023-02-26T03:41:05;5.85;;;2.88;;
29908;SDS011;36247;51.952;6.146;2023-02-26T03:43:37;7.82;;;2.53;;
29908;SDS011;36247;51.952;6.146;2023-02-26T03:46:12;11.43;;;2.70;;
29908;SDS011;36247;51.952;6.146;2023-02-26T03:48:43;8.30;;;2.90;;
29908;SDS011;36247;51.952;6.146;2023-02-26T03:51:12;8.02;;;2.53;;
29908;SDS011;36247;51.952;6.146;2023-02-26T03:53:42;7.93;;;2.95;;
29908;SDS011;36247;51.952;6.146;2023-02-26T03:56:20;15.65;;;3.03;;
29908;SDS011;36247;51.952;6.146;2023-02-26T03:59:10;5.50;;;2.60;;
29908;SDS011;36247;51.952;6.146;2023-02-26T04:02:04;8.60;;;2.95;;
29908;SDS011;36247;51.952;6.146;2023-02-26T04:07:08;8.02;;;2.60;;
29908;SDS011;36247;51.952;6.146;2023-02-26T04:09:35;4.93;;;2.22;;
29908;SDS011;36247;51.952;6.146;2023-02-26T04:12:01;7.63;;;3.03;;
29908;SDS011;36247;51.952;6.146;2023-02-26T04:14:27;11.73;;;2.72;;
29908;SDS011;36247;51.952;6.146;2023-02-26T04:16:53;11.10;;;2.97;;
29908;SDS011;36247;51.952;6.146;2023-02-26T04:19:19;5.70;;;2.83;;
29908;SDS011;36247;51.952;6.146;2023-02-26T04:21:46;8.77;;;2.70;;
29908;SDS011;36247;51.952;6.146;2023-02-26T04:24:13;8.30;;;3.03;;
29908;SDS011;36247;51.952;6.146;2023-02-26T04:26:39;10.75;;;2.97;;
29908;SDS011;36247;51.952;6.146;2023-02-26T04:29:05;9.45;;;2.92;;
29908;SDS011;36247;51.952;6.146;2023-02-26T04:31:30;7.57;;;2.35;;
29908;SDS011;36247;51.952;6.146;2023-02-26T04:33:56;8.82;;;2.55;;
29908;SDS011;36247;51.952;6.146;2023-02-26T04:36:21;11.02;;;2.80;;
29908;SDS011;36247;51.952;6.146;2023-02-26T04:38:46;5.90;;;2.40;;
29908;SDS011;36247;51.952;6.146;2023-02-26T04:41:12;11.10;;;3.05;;
29908;SDS011;36247;51.952;6.146;2023-02-26T04:43:38;8.38;;;2.42;;
29908;SDS011;36247;51.952;6.146;2023-02-26T04:46:17;7.13;;;3.10;;
29908;SDS011;36247;51.952;6.146;2023-02-26T04:48:43;8.13;;;2.40;;
29908;SDS011;36247;51.952;6.146;2023-02-26T04:51:08;5.82;;;2.20;;
29908;SDS011;36247;51.952;6.146;2023-02-26T04:53:34;7.15;;;2.58;;
29908;SDS011;36247;51.952;6.146;2023-02-26T04:55:59;8.18;;;2.53;;
29908;SDS011;36247;51.952;6.146;2023-02-26T04:58:25;9.52;;;2.60;;
29908;SDS011;36247;51.952;6.146;2023-02-26T05:00:51;5.43;;;2.55;;
29908;SDS011;36247;51.952;6.146;2023-02-26T05:03:20;5.68;;;2.47;;
29908;SDS011;36247;51.952;6.146;2023-02-26T05:05:46;8.40;;;2.40;;
29908;SDS011;36247;51.952;6.146;2023-02-26T05:08:11;9.25;;;3.10;;
29908;SDS011;36247;51.952;6.146;2023-02-26T05:10:38;5.47;;;2.20;;
29908;SDS011;36247;51.952;6.146;2023-02-26T05:13:03;6.35;;;2.72;;
29908;SDS011;36247;51.952;6.146;2023-02-26T05:15:29;4.78;;;2.10;;
29908;SDS011;36247;51.952;6.146;2023-02-26T05:17:54;6.63;;;2.00;;
29908;SDS011;36247;51.952;6.146;2023-02-26T05:20:20;11.75;;;2.70;;
29908;SDS011;36247;51.952;6.146;2023-02-26T05:22:46;12.65;;;2.10;;
29908;SDS011;36247;51.952;6.146;2023-02-26T05:25:12;5.70;;;2.28;;
29908;SDS011;36247;51.952;6.146;2023-02-26T05:27:38;8.20;;;2.22;;
29908;SDS011;36247;51.952;6.146;2023-02-26T05:30:05;6.25;;;2.40;;
29908;SDS011;36247;51.952;6.146;2023-02-26T05:32:33;5.53;;;2.15;;
29908;SDS011;36247;51.952;6.146;2023-02-26T05:34:59;12.43;;;2.78;;
29908;SDS011;36247;51.952;6.146;2023-02-26T05:37:24;6.55;;;2.20;;
29908;SDS011;36247;51.952;6.146;2023-02-26T05:39:49;6.15;;;2.00;;
29908;SDS011;36247;51.952;6.146;2023-02-26T05:42:15;10.88;;;2.20;;
29908;SDS011;36247;51.952;6.146;2023-02-26T05:44:40;8.98;;;2.20;;
29908;SDS011;36247;51.952;6.146;2023-02-26T05:47:06;8.63;;;2.15;;
29908;SDS011;36247;51.952;6.146;2023-02-26T05:49:31;8.85;;;2.17;;
29908;SDS011;36247;51.952;6.146;2023-02-26T05:51:57;4.30;;;2.25;;
29908;SDS011;36247;51.952;6.146;2023-02-26T05:54:22;6.93;;;1.95;;
29908;SDS011;36247;51.952;6.146;2023-02-26T05:56:48;10.85;;;2.10;;
29908;SDS011;36247;51.952;6.146;2023-02-26T05:59:14;4.78;;;1.98;;
29908;SDS011;36247;51.952;6.146;2023-02-26T06:01:39;6.45;;;2.20;;
29908;SDS011;36247;51.952;6.146;2023-02-26T06:04:07;7.80;;;2.17;;
29908;SDS011;36247;51.952;6.146;2023-02-26T06:06:32;6.43;;;1.85;;
29908;SDS011;36247;51.952;6.146;2023-02-26T06:08:58;9.50;;;2.10;;
29908;SDS011;36247;51.952;6.146;2023-02-26T06:11:26;6.03;;;2.00;;
29908;SDS011;36247;51.952;6.146;2023-02-26T06:13:52;6.65;;;1.80;;
29908;SDS011;36247;51.952;6.146;2023-02-26T06:16:18;6.18;;;2.30;;
29908;SDS011;36247;51.952;6.146;2023-02-26T06:18:44;7.85;;;2.33;;
29908;SDS011;36247;51.952;6.146;2023-02-26T06:21:10;6.72;;;1.98;;
29908;SDS011;36247;51.952;6.146;2023-02-26T06:23:36;5.30;;;2.40;;
29908;SDS011;36247;51.952;6.146;2023-02-26T06:26:01;6.65;;;2.10;;
29908;SDS011;36247;51.952;6.146;2023-02-26T06:28:27;5.95;;;2.20;;
29908;SDS011;36247;51.952;6.146;2023-02-26T06:30:52;12.73;;;2.08;;
29908;SDS011;36247;51.952;6.146;2023-02-26T06:33:18;8.00;;;2.10;;
29908;SDS011;36247;51.952;6.146;2023-02-26T06:35:44;10.18;;;2.60;;
29908;SDS011;36247;51.952;6.146;2023-02-26T06:38:10;7.20;;;2.20;;
29908;SDS011;36247;51.952;6.146;2023-02-26T06:40:36;7.20;;;2.13;;
29908;SDS011;36247;51.952;6.146;2023-02-26T06:43:01;8.48;;;2.13;;
29908;SDS011;36247;51.952;6.146;2023-02-26T06:45:27;5.00;;;1.98;;
29908;SDS011;36247;51.952;6.146;2023-02-26T06:47:52;5.70;;;1.83;;
29908;SDS011;36247;51.952;6.146;2023-02-26T06:50:18;7.53;;;2.00;;
29908;SDS011;36247;51.952;6.146;2023-02-26T06:52:43;4.90;;;2.15;;
29908;SDS011;36247;51.952;6.146;2023-02-26T06:55:09;11.80;;;1.90;;
29908;SDS011;36247;51.952;6.146;2023-02-26T06:57:35;8.23;;;2.00;;
29908;SDS011;36247;51.952;6.146;2023-02-26T07:00:00;7.18;;;2.08;;
29908;SDS011;36247;51.952;6.146;2023-02-26T07:02:26;7.32;;;2.15;;
29908;SDS011;36247;51.952;6.146;2023-02-26T07:04:52;5.88;;;3.10;;
29908;SDS011;36247;51.952;6.146;2023-02-26T07:07:17;3.60;;;2.08;;
29908;SDS011;36247;51.952;6.146;2023-02-26T07:09:43;4.30;;;2.00;;
29908;SDS011;36247;51.952;6.146;2023-02-26T07:12:09;9.20;;;2.17;;
29908;SDS011;36247;51.952;6.146;2023-02-26T07:14:35;9.43;;;2.38;;
29908;SDS011;36247;51.952;6.146;2023-02-26T07:17:01;5.65;;;2.03;;
29908;SDS011;36247;51.952;6.146;2023-02-26T07:19:27;5.75;;;2.25;;
29908;SDS011;36247;51.952;6.146;2023-02-26T07:21:52;10.55;;;2.00;;
29908;SDS011;36247;51.952;6.146;2023-02-26T07:24:19;7.28;;;2.40;;
29908;SDS011;36247;51.952;6.146;2023-02-26T07:26:45;8.27;;;2.05;;
29908;SDS011;36247;51.952;6.146;2023-02-26T07:29:11;8.68;;;2.55;;
29908;SDS011;36247;51.952;6.146;2023-02-26T07:31:36;5.20;;;2.15;;
29908;SDS011;36247;51.952;6.146;2023-02-26T07:34:02;6.40;;;1.88;;
29908;SDS011;36247;51.952;6.146;2023-02-26T07:36:27;3.85;;;1.90;;
29908;SDS011;36247;51.952;6.146;2023-02-26T07:38:53;4.10;;;1.80;;
29908;SDS011;36247;51.952;6.146;2023-02-26T07:41:18;4.15;;;2.05;;
29908;SDS011;36247;51.952;6.146;2023-02-26T07:43:44;8.57;;;2.20;;
29908;SDS011;36247;51.952;6.146;2023-02-26T07:46:09;6.50;;;2.47;;
29908;SDS011;36247;51.952;6.146;2023-02-26T07:48:35;7.05;;;2.15;;
29908;SDS011;36247;51.952;6.146;2023-02-26T07:51:01;5.25;;;2.90;;
29908;SDS011;36247;51.952;6.146;2023-02-26T07:53:26;5.90;;;1.95;;
29908;SDS011;36247;51.952;6.146;2023-02-26T07:55:52;7.38;;;1.80;;
29908;SDS011;36247;51.952;6.146;2023-02-26T07:58:17;5.70;;;1.90;;
29908;SDS011;36247;51.952;6.146;2023-02-26T08:00:43;5.72;;;2.40;;
29908;SDS011;36247;51.952;6.146;2023-02-26T08:03:09;6.45;;;2.17;;
29908;SDS011;36247;51.952;6.146;2023-02-26T08:05:35;3.00;;;1.75;;
29908;SDS011;36247;51.952;6.146;2023-02-26T08:08:00;8.63;;;1.80;;
29908;SDS011;36247;51.952;6.146;2023-02-26T08:10:27;4.97;;;1.80;;
29908;SDS011;36247;51.952;6.146;2023-02-26T08:12:53;6.80;;;1.85;;
29908;SDS011;36247;51.952;6.146;2023-02-26T08:15:18;5.25;;;1.73;;
29908;SDS011;36247;51.952;6.146;2023-02-26T08:17:44;6.75;;;2.65;;
29908;SDS011;36247;51.952;6.146;2023-02-26T08:20:10;4.45;;;1.98;;
29908;SDS011;36247;51.952;6.146;2023-02-26T08:22:36;10.00;;;3.17;;
29908;SDS011;36247;51.952;6.146;2023-02-26T08:25:02;6.47;;;2.28;;
29908;SDS011;36247;51.952;6.146;2023-02-26T08:27:28;7.10;;;2.20;;
29908;SDS011;36247;51.952;6.146;2023-02-26T08:29:53;5.75;;;2.95;;
29908;SDS011;36247;51.952;6.146;2023-02-26T08:32:19;7.72;;;2.10;;
29908;SDS011;36247;51.952;6.146;2023-02-26T08:34:47;9.95;;;2.20;;
29908;SDS011;36247;51.952;6.146;2023-02-26T08:37:13;4.82;;;1.77;;
29908;SDS011;36247;51.952;6.146;2023-02-26T08:39:38;3.13;;;1.80;;
29908;SDS011;36247;51.952;6.146;2023-02-26T08:42:05;4.05;;;1.85;;
29908;SDS011;36247;51.952;6.146;2023-02-26T08:44:31;7.35;;;1.98;;
29908;SDS011;36247;51.952;6.146;2023-02-26T08:46:57;8.77;;;1.92;;
29908;SDS011;36247;51.952;6.146;2023-02-26T08:49:23;8.50;;;2.58;;
29908;SDS011;36247;51.952;6.146;2023-02-26T08:51:48;5.13;;;2.00;;
29908;SDS011;36247;51.952;6.146;2023-02-26T08:54:14;5.28;;;1.83;;
29908;SDS011;36247;51.952;6.146;2023-02-26T08:56:40;11.02;;;2.45;;
29908;SDS011;36247;51.952;6.146;2023-02-26T08:59:05;7.13;;;2.08;;
29908;SDS011;36247;51.952;6.146;2023-02-26T09:01:33;12.23;;;2.20;;
29908;SDS011;36247;51.952;6.146;2023-02-26T09:03:58;7.30;;;1.75;;
29908;SDS011;36247;51.952;6.146;2023-02-26T09:06:24;3.50;;;2.03;;
29908;SDS011;36247;51.952;6.146;2023-02-26T09:08:49;8.10;;;1.95;;
29908;SDS011;36247;51.952;6.146;2023-02-26T09:11:15;5.53;;;3.13;;
29908;SDS011;36247;51.952;6.146;2023-02-26T09:13:40;3.47;;;1.75;;
29908;SDS011;36247;51.952;6.146;2023-02-26T09:16:06;6.90;;;1.80;;
29908;SDS011;36247;51.952;6.146;2023-02-26T09:18:32;6.75;;;2.05;;
29908;SDS011;36247;51.952;6.146;2023-02-26T09:20:57;7.72;;;2.15;;
29908;SDS011;36247;51.952;6.146;2023-02-26T09:23:23;3.97;;;1.60;;
29908;SDS011;36247;51.952;6.146;2023-02-26T09:25:52;8.05;;;1.63;;
29908;SDS011;36247;51.952;6.146;2023-02-26T09:28:19;3.75;;;1.67;;
29908;SDS011;36247;51.952;6.146;2023-02-26T09:30:45;3.05;;;1.40;;
29908;SDS011;36247;51.952;6.146;2023-02-26T09:33:11;5.25;;;1.50;;
29908;SDS011;36247;51.952;6.146;2023-02-26T09:35:36;4.80;;;1.67;;
29908;SDS011;36247;51.952;6.146;2023-02-26T09:38:02;4.60;;;1.80;;
29908;SDS011;36247;51.952;6.146;2023-02-26T09:43:19;6.47;;;1.92;;
29908;SDS011;36247;51.952;6.146;2023-02-26T09:46:02;7.15;;;2.13;;
29908;SDS011;36247;51.952;6.146;2023-02-26T09:48:35;4.88;;;1.60;;
29908;SDS011;36247;51.952;6.146;2023-02-26T09:51:03;4.90;;;1.80;;
29908;SDS011;36247;51.952;6.146;2023-02-26T09:53:32;2.75;;;1.70;;
29908;SDS011;36247;51.952;6.146;2023-02-26T09:56:06;3.13;;;1.50;;
29908;SDS011;36247;51.952;6.146;2023-02-26T09:58:45;8.20;;;1.65;;
29908;SDS011;36247;51.952;6.146;2023-02-26T10:01:18;5.55;;;1.70;;
29908;SDS011;36247;51.952;6.146;2023-02-26T10:03:58;4.60;;;1.80;;
29908;SDS011;36247;51.952;6.146;2023-02-26T10:06:52;4.03;;;2.83;;
29908;SDS011;36247;51.952;6.146;2023-02-26T10:10:23;3.00;;;1.63;;
29908;SDS011;36247;51.952;6.146;2023-02-26T10:12:41;3.33;;;1.50;;
29908;SDS011;36247;51.952;6.146;2023-02-26T10:17:53;5.13;;;2.30;;
29908;SDS011;36247;51.952;6.146;2023-02-26T10:21:05;3.40;;;1.63;;
29908;SDS011;36247;51.952;6.146;2023-02-26T10:26:29;3.65;;;1.70;;
29908;SDS011;36247;51.952;6.146;2023-02-26T10:31:38;6.43;;;2.38;;
29908;SDS011;36247;51.952;6.146;2023-02-26T10:39:28;5.82;;;1.75;;
29908;SDS011;36247;51.952;6.146;2023-02-26T10:42:02;3.28;;;1.15;;
29908;SDS011;36247;51.952;6.146;2023-02-26T10:44:39;5.45;;;1.55;;
29908;SDS011;36247;51.952;6.146;2023-02-26T10:54:54;2.70;;;1.65;;
29908;SDS011;36247;51.952;6.146;2023-02-26T10:57:27;5.25;;;1.45;;
29908;SDS011;36247;51.952;6.146;2023-02-26T10:59:59;4.30;;;1.30;;
29908;SDS011;36247;51.952;6.146;2023-02-26T11:02:39;1.88;;;1.30;;
29908;SDS011;36247;51.952;6.146;2023-02-26T11:05:12;1.90;;;1.25;;
29908;SDS011;36247;51.952;6.146;2023-02-26T11:07:42;3.97;;;1.70;;
29908;SDS011;36247;51.952;6.146;2023-02-26T11:10:19;3.80;;;1.33;;
29908;SDS011;36247;51.952;6.146;2023-02-26T11:12:48;2.80;;;2.17;;
29908;SDS011;36247;51.952;6.146;2023-02-26T11:15:18;3.47;;;1.73;;
29908;SDS011;36247;51.952;6.146;2023-02-26T11:17:48;1.48;;;1.15;;
29908;SDS011;36247;51.952;6.146;2023-02-26T11:20:36;4.35;;;1.60;;
29908;SDS011;36247;51.952;6.146;2023-02-26T11:23:10;4.97;;;1.20;;
29908;SDS011;36247;51.952;6.146;2023-02-26T11:25:37;2.08;;;1.20;;
29908;SDS011;36247;51.952;6.146;2023-02-26T11:28:05;3.60;;;1.60;;
29908;SDS011;36247;51.952;6.146;2023-02-26T11:30:51;4.43;;;1.60;;
29908;SDS011;36247;51.952;6.146;2023-02-26T11:35:48;3.75;;;1.45;;
29908;SDS011;36247;51.952;6.146;2023-02-26T11:38:19;3.97;;;1.45;;
29908;SDS011;36247;51.952;6.146;2023-02-26T11:40:48;3.70;;;1.42;;
29908;SDS011;36247;51.952;6.146;2023-02-26T11:43:17;1.92;;;1.17;;
29908;SDS011;36247;51.952;6.146;2023-02-26T11:45:46;4.40;;;1.30;;
29908;SDS011;36247;51.952;6.146;2023-02-26T11:48:18;2.97;;;1.50;;
29908;SDS011;36247;51.952;6.146;2023-02-26T11:50:52;1.83;;;1.17;;
29908;SDS011;36247;51.952;6.146;2023-02-26T11:53:29;1.58;;;1.20;;
29908;SDS011;36247;51.952;6.146;2023-02-26T11:56:14;2.97;;;1.58;;
29908;SDS011;36247;51.952;6.146;2023-02-26T11:59:01;3.03;;;1.42;;
29908;SDS011;36247;51.952;6.146;2023-02-26T12:01:32;4.07;;;1.70;;
29908;SDS011;36247;51.952;6.146;2023-02-26T12:04:00;5.43;;;1.70;;
29908;SDS011;36247;51.952;6.146;2023-02-26T12:06:27;5.07;;;1.30;;
29908;SDS011;36247;51.952;6.146;2023-02-26T12:08:53;2.53;;;1.60;;
29908;SDS011;36247;51.952;6.146;2023-02-26T12:11:37;3.78;;;1.90;;
29908;SDS011;36247;51.952;6.146;2023-02-26T12:30:23;3.70;;;1.20;;
29908;SDS011;36247;51.952;6.146;2023-02-26T12:33:19;3.35;;;1.40;;
29908;SDS011;36247;51.952;6.146;2023-02-26T12:38:40;2.63;;;1.60;;
29908;SDS011;36247;51.952;6.146;2023-02-26T12:41:32;5.28;;;1.40;;
29908;SDS011;36247;51.952;6.146;2023-02-26T12:44:20;6.00;;;2.00;;
29908;SDS011;36247;51.952;6.146;2023-02-26T12:50:02;3.13;;;1.92;;
29908;SDS011;36247;51.952;6.146;2023-02-26T13:00:38;3.25;;;1.63;;
29908;SDS011;36247;51.952;6.146;2023-02-26T13:16:31;1.95;;;1.33;;
29908;SDS011;36247;51.952;6.146;2023-02-26T13:19:14;4.20;;;1.90;;
29908;SDS011;36247;51.952;6.146;2023-02-26T13:21:52;2.10;;;1.63;;
29908;SDS011;36247;51.952;6.146;2023-02-26T13:24:57;2.95;;;1.83;;
29908;SDS011;36247;51.952;6.146;2023-02-26T13:27:36;3.30;;;1.63;;
29908;SDS011;36247;51.952;6.146;2023-02-26T13:30:05;8.20;;;3.75;;
29908;SDS011;36247;51.952;6.146;2023-02-26T13:32:34;2.95;;;1.60;;
29908;SDS011;36247;51.952;6.146;2023-02-26T13:35:05;3.15;;;1.70;;
29908;SDS011;36247;51.952;6.146;2023-02-26T13:37:53;2.00;;;1.70;;
29908;SDS011;36247;51.952;6.146;2023-02-26T13:40:30;1.80;;;1.38;;
29908;SDS011;36247;51.952;6.146;2023-02-26T13:43:09;2.42;;;1.70;;
29908;SDS011;36247;51.952;6.146;2023-02-26T13:48:24;3.72;;;1.88;;
29908;SDS011;36247;51.952;6.146;2023-02-26T13:51:30;3.83;;;1.40;;
29908;SDS011;36247;51.952;6.146;2023-02-26T13:54:01;3.53;;;2.15;;
29908;SDS011;36247;51.952;6.146;2023-02-26T13:59:03;2.08;;;1.45;;
29908;SDS011;36247;51.952;6.146;2023-02-26T14:01:49;4.95;;;1.58;;
29908;SDS011;36247;51.952;6.146;2023-02-26T14:16:58;3.40;;;1.70;;
29908;SDS011;36247;51.952;6.146;2023-02-26T14:25:28;2.65;;;1.65;;
29908;SDS011;36247;51.952;6.146;2023-02-26T14:31:45;4.78;;;1.50;;
29908;SDS011;36247;51.952;6.146;2023-02-26T14:34:19;5.25;;;1.55;;
29908;SDS011;36247;51.952;6.146;2023-02-26T14:36:43;1.63;;;1.33;;
29908;SDS011;36247;51.952;6.146;2023-02-26T14:39:16;2.05;;;1.60;;
29908;SDS011;36247;51.952;6.146;2023-02-26T14:41:49;3.65;;;1.65;;
29908;SDS011;36247;51.952;6.146;2023-02-26T14:44:22;2.15;;;1.45;;
29908;SDS011;36247;51.952;6.146;2023-02-26T14:46:51;5.28;;;1.95;;
29908;SDS011;36247;51.952;6.146;2023-02-26T14:49:20;2.38;;;1.25;;
29908;SDS011;36247;51.952;6.146;2023-02-26T14:52:00;3.50;;;1.40;;
29908;SDS011;36247;51.952;6.146;2023-02-26T15:10:56;3.10;;;1.67;;
29908;SDS011;36247;51.952;6.146;2023-02-26T15:13:42;1.33;;;1.23;;
29908;SDS011;36247;51.952;6.146;2023-02-26T15:16:42;1.52;;;1.27;;
29908;SDS011;36247;51.952;6.146;2023-02-26T15:22:11;1.80;;;1.02;;
29908;SDS011;36247;51.952;6.146;2023-02-26T15:24:40;4.35;;;1.25;;
29908;SDS011;36247;51.952;6.146;2023-02-26T15:27:06;1.20;;;1.10;;
29908;SDS011;36247;51.952;6.146;2023-02-26T15:29:36;1.75;;;1.30;;
29908;SDS011;36247;51.952;6.146;2023-02-26T15:34:48;4.20;;;1.30;;
29908;SDS011;36247;51.952;6.146;2023-02-26T15:37:23;1.77;;;1.10;;
29908;SDS011;36247;51.952;6.146;2023-02-26T15:39:50;2.60;;;1.35;;
29908;SDS011;36247;51.952;6.146;2023-02-26T15:42:17;2.05;;;1.15;;
29908;SDS011;36247;51.952;6.146;2023-02-26T15:44:45;2.60;;;1.25;;
29908;SDS011;36247;51.952;6.146;2023-02-26T15:47:11;5.53;;;1.40;;
29908;SDS011;36247;51.952;6.146;2023-02-26T15:49:45;1.58;;;1.20;;
29908;SDS011;36247;51.952;6.146;2023-02-26T15:52:13;2.75;;;1.70;;
29908;SDS011;36247;51.952;6.146;2023-02-26T15:54:43;2.28;;;1.45;;
29908;SDS011;36247;51.952;6.146;2023-02-26T15:57:12;1.90;;;1.63;;
29908;SDS011;36247;51.952;6.146;2023-02-26T15:59:42;3.13;;;1.27;;
29908;SDS011;36247;51.952;6.146;2023-02-26T16:02:11;2.72;;;1.30;;
29908;SDS011;36247;51.952;6.146;2023-02-26T16:04:39;2.22;;;1.10;;
29908;SDS011;36247;51.952;6.146;2023-02-26T16:07:05;2.63;;;1.42;;
29908;SDS011;36247;51.952;6.146;2023-02-26T16:09:34;3.08;;;1.70;;
29908;SDS011;36247;51.952;6.146;2023-02-26T16:12:23;2.38;;;1.30;;
29908;SDS011;36247;51.952;6.146;2023-02-26T16:14:58;3.35;;;1.40;;
29908;SDS011;36247;51.952;6.146;2023-02-26T16:17:30;3.65;;;1.52;;
29908;SDS011;36247;51.952;6.146;2023-02-26T16:20:03;1.47;;;1.30;;
29908;SDS011;36247;51.952;6.146;2023-02-26T16:22:36;3.92;;;1.55;;
29908;SDS011;36247;51.952;6.146;2023-02-26T16:25:17;2.88;;;1.48;;
29908;SDS011;36247;51.952;6.146;2023-02-26T16:28:11;2.20;;;1.13;;
29908;SDS011;36247;51.952;6.146;2023-02-26T16:30:41;2.50;;;1.52;;
29908;SDS011;36247;51.952;6.146;2023-02-26T16:33:11;3.50;;;1.67;;
29908;SDS011;36247;51.952;6.146;2023-02-26T16:35:41;1.92;;;1.45;;
29908;SDS011;36247;51.952;6.146;2023-02-26T16:38:17;3.03;;;1.60;;
29908;SDS011;36247;51.952;6.146;2023-02-26T16:40:58;3.38;;;1.90;;
29908;SDS011;36247;51.952;6.146;2023-02-26T16:46:15;3.63;;;1.60;;
29908;SDS011;36247;51.952;6.146;2023-02-26T16:48:54;3.13;;;1.30;;
29908;SDS011;36247;51.952;6.146;2023-02-26T16:51:25;1.40;;;1.10;;
29908;SDS011;36247;51.952;6.146;2023-02-26T16:53:55;3.05;;;1.30;;
29908;SDS011;36247;51.952;6.146;2023-02-26T16:56:27;3.35;;;1.52;;
29908;SDS011;36247;51.952;6.146;2023-02-26T16:59:06;4.22;;;1.30;;
29908;SDS011;36247;51.952;6.146;2023-02-26T17:01:38;1.85;;;1.40;;
29908;SDS011;36247;51.952;6.146;2023-02-26T17:04:08;2.85;;;1.67;;
29908;SDS011;36247;51.952;6.146;2023-02-26T17:06:39;1.73;;;1.63;;
29908;SDS011;36247;51.952;6.146;2023-02-26T17:09:06;2.83;;;1.83;;
29908;SDS011;36247;51.952;6.146;2023-02-26T17:11:47;2.72;;;1.52;;
29908;SDS011;36247;51.952;6.146;2023-02-26T17:14:14;2.38;;;1.42;;
29908;SDS011;36247;51.952;6.146;2023-02-26T17:16:46;5.90;;;1.90;;
29908;SDS011;36247;51.952;6.146;2023-02-26T17:19:13;2.80;;;1.77;;
29908;SDS011;36247;51.952;6.146;2023-02-26T17:21:46;4.32;;;2.25;;
29908;SDS011;36247;51.952;6.146;2023-02-26T17:24:15;3.63;;;1.92;;
29908;SDS011;36247;51.952;6.146;2023-02-26T17:26:44;6.72;;;1.60;;
29908;SDS011;36247;51.952;6.146;2023-02-26T17:29:21;3.65;;;1.42;;
29908;SDS011;36247;51.952;6.146;2023-02-26T17:31:52;2.15;;;1.50;;
29908;SDS011;36247;51.952;6.146;2023-02-26T17:34:18;4.90;;;2.40;;
29908;SDS011;36247;51.952;6.146;2023-02-26T17:36:45;4.05;;;2.03;;
29908;SDS011;36247;51.952;6.146;2023-02-26T17:39:11;2.95;;;1.63;;
29908;SDS011;36247;51.952;6.146;2023-02-26T17:41:38;3.25;;;2.00;;
29908;SDS011;36247;51.952;6.146;2023-02-26T17:44:06;6.13;;;2.13;;
29908;SDS011;36247;51.952;6.146;2023-02-26T17:46:32;6.25;;;3.05;;
29908;SDS011;36247;51.952;6.146;2023-02-26T17:48:57;6.97;;;4.65;;
29908;SDS011;36247;51.952;6.146;2023-02-26T17:51:23;7.40;;;4.45;;
29908;SDS011;36247;51.952;6.146;2023-02-26T17:53:48;4.68;;;2.53;;